createdAt,value
2023-03-01T00:01:47.571Z,25.76
2023-03-01T00:04:52.650Z,25.44
2023-03-01T00:07:58.266Z,25.58
2023-03-01T00:11:10.455Z,25.40
2023-03-01T00:14:14.373Z,25.45
2023-03-01T00:17:17.548Z,25.35
2023-03-01T00:20:20.782Z,25.44
2023-03-01T00:23:25.038Z,25.22
2023-03-01T00:26:28.991Z,25.23
2023-03-01T00:29:32.439Z,25.02
2023-03-01T00:32:35.728Z,24.95
2023-03-01T00:35:39.210Z,24.89
2023-03-01T00:38:44.846Z,25.03
2023-03-01T00:41:48.009Z,24.84
2023-03-01T00:44:51.236Z,24.81
2023-03-01T00:47:54.496Z,24.91
2023-03-01T00:50:57.752Z,24.90
2023-03-01T00:54:03.561Z,24.52
2023-03-01T00:57:06.784Z,24.28
2023-03-01T01:00:10.585Z,24.35
2023-03-01T01:03:14.412Z,24.28
2023-03-01T01:06:22.672Z,24.14
2023-03-01T01:09:25.905Z,24.19
2023-03-01T01:12:29.400Z,24.23
2023-03-01T01:15:36.192Z,24.11
2023-03-01T01:18:40.288Z,23.90
2023-03-01T01:21:43.667Z,23.91
2023-03-01T01:24:47.073Z,23.94
2023-03-01T01:27:50.643Z,23.82
2023-03-01T01:30:53.865Z,23.83
2023-03-01T01:33:58.046Z,23.87
2023-03-01T01:37:03.553Z,23.75
2023-03-01T01:40:07.349Z,23.68
2023-03-01T01:43:25.787Z,23.84
2023-03-01T01:46:34.023Z,23.73
2023-03-01T01:49:50.764Z,23.52
2023-03-01T01:52:55.427Z,23.71
2023-03-01T01:56:00.765Z,23.62
2023-03-01T01:59:04.188Z,23.53
2023-03-01T02:02:09.324Z,23.27
2023-03-01T02:05:35.057Z,23.25
2023-03-01T02:08:40.424Z,23.13
2023-03-01T02:11:44.278Z,23.10
2023-03-01T02:14:47.609Z,23.09
2023-03-01T02:17:51.059Z,23.17
2023-03-01T02:20:56.544Z,22.98
2023-03-01T02:24:11.740Z,22.92
2023-03-01T02:27:15.500Z,22.94
2023-03-01T02:30:20.561Z,22.88
2023-03-01T02:33:23.872Z,22.80
2023-03-01T02:36:31.478Z,22.75
2023-03-01T02:39:50.013Z,22.64
2023-03-01T02:42:56.288Z,22.53
2023-03-01T02:46:01.287Z,22.69
2023-03-01T02:49:18.285Z,22.72
2023-03-01T02:52:36.846Z,22.72
2023-03-01T02:55:40.238Z,22.66
2023-03-01T02:58:44.107Z,22.52
2023-03-01T03:01:47.496Z,22.48
2023-03-01T03:04:50.934Z,22.65
2023-03-01T03:07:54.573Z,22.75
2023-03-01T03:10:57.715Z,22.45
2023-03-01T03:14:01.263Z,22.48
2023-03-01T03:17:04.547Z,22.37
2023-03-01T03:20:09.355Z,22.56
2023-03-01T03:23:13.234Z,22.60
2023-03-01T03:26:16.504Z,22.30
2023-03-01T03:29:19.793Z,22.23
2023-03-01T03:32:23.301Z,22.27
2023-03-01T03:35:32.399Z,22.08
2023-03-01T03:38:36.118Z,22.01
2023-03-01T03:41:39.311Z,22.03
2023-03-01T03:44:42.609Z,21.96
2023-03-01T03:47:48.706Z,22.04
2023-03-01T03:50:57.692Z,22.11
2023-03-01T03:54:01.025Z,21.93
2023-03-01T03:57:07.155Z,21.90
2023-03-01T04:00:13.625Z,21.83
2023-03-01T04:03:17.990Z,21.77
2023-03-01T04:06:21.415Z,21.85
2023-03-01T04:09:25.476Z,21.86
2023-03-01T04:12:28.964Z,22.12
2023-03-01T04:15:33.925Z,22.17
2023-03-01T04:18:37.143Z,22.10
2023-03-01T04:21:40.565Z,21.94
2023-03-01T04:24:43.718Z,21.85
2023-03-01T04:27:47.176Z,21.88
2023-03-01T04:30:50.489Z,21.96
2023-03-01T04:33:55.961Z,21.95
2023-03-01T04:36:59.160Z,21.96
2023-03-01T04:40:04.916Z,21.93
2023-03-01T04:43:08.089Z,21.89
2023-03-01T04:46:16.809Z,21.88
2023-03-01T04:49:20.224Z,21.89
2023-03-01T04:52:23.486Z,22.04
2023-03-01T04:55:28.489Z,21.87
2023-03-01T04:58:31.923Z,21.95
2023-03-01T05:01:37.169Z,21.77
2023-03-01T05:04:42.813Z,21.93
2023-03-01T05:07:46.081Z,21.81
2023-03-01T05:10:54.480Z,21.92
2023-03-01T05:13:58.793Z,21.76
2023-03-01T05:17:02.128Z,21.92
2023-03-01T05:20:05.780Z,21.65
2023-03-01T05:23:09.120Z,21.67
2023-03-01T05:26:27.348Z,21.59
2023-03-01T05:29:36.030Z,21.56
2023-03-01T05:32:39.319Z,21.68
2023-03-01T05:35:47.065Z,21.59
2023-03-01T05:38:50.328Z,21.63
2023-03-01T05:41:58.424Z,21.64
2023-03-01T05:45:01.751Z,21.59
2023-03-01T05:48:06.111Z,21.42
2023-03-01T05:51:09.422Z,21.59
2023-03-01T05:54:12.741Z,21.49
2023-03-01T05:57:15.966Z,21.47
2023-03-01T06:00:21.618Z,21.44
2023-03-01T06:03:24.917Z,21.58
2023-03-01T06:06:29.286Z,21.46
2023-03-01T06:09:32.644Z,21.54
2023-03-01T06:12:41.732Z,21.61
2023-03-01T06:15:44.852Z,21.61
2023-03-01T06:18:48.098Z,21.55
2023-03-01T06:21:53.280Z,21.53
2023-03-01T06:24:56.555Z,21.50
2023-03-01T06:27:59.888Z,21.66
2023-03-01T06:31:03.403Z,21.64
2023-03-01T06:34:07.861Z,21.58
2023-03-01T06:37:11.203Z,21.51
2023-03-01T06:40:15.015Z,21.61
2023-03-01T06:43:18.968Z,21.44
2023-03-01T06:46:22.198Z,21.48
2023-03-01T06:49:25.545Z,21.48
2023-03-01T06:52:28.925Z,21.49
2023-03-01T06:55:32.565Z,21.57
2023-03-01T06:58:35.774Z,21.57
2023-03-01T07:01:39.193Z,21.63
2023-03-01T07:04:42.999Z,21.71
2023-03-01T07:07:46.300Z,21.55
2023-03-01T07:10:51.659Z,21.67
2023-03-01T07:13:55.845Z,21.49
2023-03-01T07:16:59.056Z,21.41
2023-03-01T07:20:02.555Z,21.49
2023-03-01T07:23:07.581Z,21.54
2023-03-01T07:26:10.898Z,21.53
2023-03-01T07:29:14.102Z,21.46
2023-03-01T07:32:17.489Z,21.66
2023-03-01T07:35:20.976Z,21.64
2023-03-01T07:38:24.279Z,21.82
2023-03-01T07:41:27.516Z,21.56
2023-03-01T07:44:30.690Z,21.71
2023-03-01T07:47:34.115Z,21.72
2023-03-01T07:50:37.353Z,21.62
2023-03-01T07:53:40.605Z,21.52
2023-03-01T07:56:43.832Z,21.56
2023-03-01T07:59:47.217Z,21.66
2023-03-01T08:02:50.517Z,21.64
2023-03-01T08:05:53.846Z,21.71
2023-03-01T08:08:57.204Z,21.62
2023-03-01T08:12:00.617Z,21.67
2023-03-01T08:15:04.387Z,21.61
2023-03-01T08:18:08.397Z,21.58
2023-03-01T08:21:13.617Z,21.61
2023-03-01T08:24:16.932Z,21.67
2023-03-01T08:27:24.010Z,21.90
2023-03-01T08:30:28.025Z,22.01
2023-03-01T08:33:31.386Z,21.87
2023-03-01T08:36:38.777Z,21.74
2023-03-01T08:39:42.054Z,21.74
2023-03-01T08:42:46.277Z,21.55
2023-03-01T08:45:52.912Z,21.76
2023-03-01T08:48:56.640Z,22.12
2023-03-01T08:51:59.974Z,22.27
2023-03-01T08:55:03.219Z,22.08
2023-03-01T08:58:06.565Z,21.66
2023-03-01T09:01:14.913Z,21.89
2023-03-01T09:04:18.226Z,21.88
2023-03-01T09:07:21.479Z,22.13
2023-03-01T09:10:24.724Z,21.83
2023-03-01T09:13:29.791Z,21.98
2023-03-01T09:16:33.430Z,22.00
2023-03-01T09:19:36.920Z,21.81
2023-03-01T09:22:40.155Z,21.69
2023-03-01T09:25:43.334Z,21.80
2023-03-01T09:28:47.417Z,22.02
2023-03-01T09:31:52.087Z,22.16
2023-03-01T09:34:55.451Z,21.96
2023-03-01T09:37:58.653Z,22.16
2023-03-01T09:41:02.937Z,21.95
2023-03-01T09:44:31.776Z,21.74
2023-03-01T09:47:37.285Z,21.83
2023-03-01T09:50:42.822Z,22.06
2023-03-01T09:53:45.997Z,22.15
2023-03-01T09:56:59.789Z,22.14
2023-03-01T10:00:21.651Z,22.01
2023-03-01T10:03:24.853Z,21.92
2023-03-01T10:06:34.967Z,21.95
2023-03-01T10:09:41.637Z,22.05
2023-03-01T10:12:46.931Z,22.06
2023-03-01T10:15:53.223Z,21.99
2023-03-01T10:19:02.793Z,22.26
2023-03-01T10:22:18.043Z,21.99
2023-03-01T10:25:43.923Z,22.06
2023-03-01T10:29:10.038Z,22.03
2023-03-01T10:32:13.492Z,22.04
2023-03-01T10:35:25.368Z,21.86
2023-03-01T10:38:32.045Z,21.89
2023-03-01T10:41:35.233Z,21.97
2023-03-01T10:44:48.390Z,21.99
2023-03-01T10:48:02.518Z,21.78
2023-03-01T10:51:06.729Z,21.82
2023-03-01T10:54:32.304Z,21.86
2023-03-01T10:57:41.327Z,21.98
2023-03-01T11:01:00.301Z,21.99
2023-03-01T11:04:09.693Z,21.99
2023-03-01T11:07:12.868Z,21.87
2023-03-01T11:10:24.210Z,21.89
2023-03-01T11:13:29.771Z,21.97
2023-03-01T11:16:36.094Z,21.89
2023-03-01T11:19:39.424Z,21.95
2023-03-01T11:22:48.894Z,21.92
2023-03-01T11:25:58.162Z,22.06
2023-03-01T11:29:04.757Z,22.04
2023-03-01T11:32:10.897Z,21.78
2023-03-01T11:35:21.504Z,21.76
2023-03-01T11:38:27.197Z,21.80
2023-03-01T11:41:36.047Z,21.71
2023-03-01T11:44:40.742Z,21.74
2023-03-01T11:48:09.400Z,22.07
2023-03-01T11:51:42.450Z,22.15
2023-03-01T11:55:01.374Z,21.99
2023-03-01T11:58:14.880Z,21.87
2023-03-01T12:01:26.972Z,22.01
2023-03-01T12:05:10.876Z,22.07
2023-03-01T12:08:21.793Z,21.77
2023-03-01T12:11:49.777Z,21.80
2023-03-01T12:15:22.675Z,21.71
2023-03-01T12:18:52.059Z,21.74
2023-03-01T12:22:01.225Z,21.66
2023-03-01T12:25:20.702Z,21.65
2023-03-01T12:28:32.861Z,21.71
2023-03-01T12:31:47.740Z,21.48
2023-03-01T12:35:14.816Z,21.73
2023-03-01T12:39:05.561Z,21.81
2023-03-01T12:42:47.589Z,21.79
2023-03-01T12:46:19.780Z,22.05
2023-03-01T12:49:49.697Z,21.72
2023-03-01T12:52:55.109Z,21.65
2023-03-01T12:56:08.888Z,21.66
2023-03-01T12:59:31.693Z,21.65
2023-03-01T13:03:02.561Z,21.62
2023-03-01T13:06:42.971Z,21.71
2023-03-01T13:10:11.561Z,21.60
2023-03-01T13:13:29.051Z,21.79
2023-03-01T13:16:32.678Z,21.87
2023-03-01T13:19:36.180Z,21.87
2023-03-01T13:22:46.882Z,21.82
2023-03-01T13:26:09.953Z,21.89
2023-03-01T13:29:28.201Z,21.88
2023-03-01T13:32:44.497Z,21.93
2023-03-01T13:35:48.535Z,21.92
2023-03-01T13:39:41.385Z,22.19
2023-03-01T13:43:04.272Z,22.34
2023-03-01T13:46:18.655Z,22.33
2023-03-01T13:49:22.235Z,22.44
2023-03-01T13:52:39.461Z,22.51
2023-03-01T13:55:54.943Z,22.36
2023-03-01T13:59:07.118Z,22.39
2023-03-01T14:02:14.468Z,22.29
2023-03-01T14:05:17.731Z,22.22
2023-03-01T14:08:27.333Z,22.24
2023-03-01T14:11:39.764Z,22.19
2023-03-01T14:14:47.966Z,22.31
2023-03-01T14:18:12.424Z,22.63
2023-03-01T14:21:16.639Z,22.28
2023-03-01T14:24:22.806Z,22.51
2023-03-01T14:27:30.459Z,22.51
2023-03-01T14:30:39.677Z,22.46
2023-03-01T14:33:42.949Z,22.59
2023-03-01T14:36:47.322Z,22.60
2023-03-01T14:39:51.274Z,22.90
2023-03-01T14:42:56.627Z,22.50
2023-03-01T14:46:00.096Z,22.46
2023-03-01T14:49:05.369Z,22.66
2023-03-01T14:52:18.287Z,22.76
2023-03-01T14:55:23.897Z,22.61
2023-03-01T14:58:29.604Z,23.02
2023-03-01T15:01:32.938Z,23.21
2023-03-01T15:04:36.303Z,23.22
2023-03-01T15:07:42.089Z,23.29
2023-03-01T15:11:01.482Z,23.52
2023-03-01T15:14:49.437Z,23.29
2023-03-01T15:17:57.385Z,23.27
2023-03-01T15:21:16.773Z,23.29
2023-03-01T15:24:22.421Z,23.51
2023-03-01T15:27:27.093Z,23.40
2023-03-01T15:30:36.033Z,23.27
2023-03-01T15:33:42.236Z,23.51
2023-03-01T15:36:48.966Z,23.47
2023-03-01T15:39:57.791Z,23.60
2023-03-01T15:43:06.350Z,23.55
2023-03-01T15:46:30.538Z,23.92
2023-03-01T15:49:53.921Z,23.94
2023-03-01T15:53:00.326Z,24.06
2023-03-01T15:56:03.656Z,24.21
2023-03-01T15:59:06.960Z,24.05
2023-03-01T16:02:13.905Z,24.26
2023-03-01T16:05:36.470Z,24.53
2023-03-01T16:08:40.105Z,24.85
2023-03-01T16:11:43.381Z,24.51
2023-03-01T16:14:46.603Z,24.61
2023-03-01T16:17:52.340Z,24.65
2023-03-01T16:20:55.793Z,24.59
2023-03-01T16:23:58.989Z,24.76
2023-03-01T16:27:02.458Z,25.12
2023-03-01T16:30:07.601Z,24.97
2023-03-01T16:33:34.188Z,24.91
2023-03-01T16:36:34.999Z,24.94
2023-03-01T16:39:40.278Z,25.24
2023-03-01T16:42:43.438Z,25.22
2023-03-01T16:45:46.784Z,25.31
2023-03-01T16:48:51.903Z,25.34
2023-03-01T16:51:58.092Z,25.52
2023-03-01T16:55:01.458Z,25.63
2023-03-01T16:58:04.666Z,25.46
2023-03-01T17:01:27.186Z,25.44
2023-03-01T17:04:30.469Z,25.79
2023-03-01T17:07:34.733Z,25.98
2023-03-01T17:10:38.006Z,26.09
2023-03-01T17:13:41.725Z,26.05
2023-03-01T17:16:45.782Z,25.75
2023-03-01T17:19:51.050Z,25.62
2023-03-01T17:22:54.334Z,25.82
2023-03-01T17:25:57.689Z,25.73
2023-03-01T17:29:01.624Z,25.94
2023-03-01T17:32:07.763Z,26.61
2023-03-01T17:35:11.259Z,27.07
2023-03-01T17:38:15.718Z,27.13
2023-03-01T17:41:19.476Z,27.24
2023-03-01T17:44:23.977Z,27.64
2023-03-01T17:47:27.561Z,27.32
2023-03-01T17:50:30.801Z,27.10
2023-03-01T17:53:34.081Z,26.95
2023-03-01T17:56:37.389Z,27.08
2023-03-01T17:59:40.594Z,26.68
2023-03-01T18:02:44.394Z,26.40
2023-03-01T18:05:47.661Z,26.40
2023-03-01T18:08:51.579Z,26.69
2023-03-01T18:11:54.868Z,26.57
2023-03-01T18:14:58.057Z,26.75
2023-03-01T18:18:01.457Z,26.38
2023-03-01T18:21:05.793Z,26.51
2023-03-01T18:24:09.100Z,26.42
2023-03-01T18:27:12.355Z,26.42
2023-03-01T18:30:16.008Z,26.55
2023-03-01T18:33:19.313Z,26.31
2023-03-01T18:36:31.195Z,26.35
2023-03-01T18:39:34.519Z,26.56
2023-03-01T18:42:37.743Z,26.53
2023-03-01T18:45:41.127Z,26.41
2023-03-01T18:48:44.425Z,26.42
2023-03-01T18:51:47.706Z,26.34
2023-03-01T18:54:51.011Z,26.51
2023-03-01T18:57:55.456Z,26.64
2023-03-01T19:00:58.734Z,26.68
2023-03-01T19:04:02.304Z,26.45
2023-03-01T19:07:05.646Z,26.63
2023-03-01T19:10:09.378Z,26.73
2023-03-01T19:13:12.605Z,26.88
2023-03-01T19:16:18.674Z,26.87
2023-03-01T19:19:22.000Z,27.12
2023-03-01T19:22:27.015Z,26.89
2023-03-01T19:25:30.308Z,26.80
2023-03-01T19:28:33.839Z,27.02
2023-03-01T19:31:38.654Z,26.58
2023-03-01T19:34:41.927Z,26.49
2023-03-01T19:37:45.275Z,26.72
2023-03-01T19:40:48.573Z,26.88
2023-03-01T19:43:51.879Z,26.88
2023-03-01T19:46:56.397Z,26.74
2023-03-01T19:49:59.594Z,26.75
2023-03-01T19:53:03.938Z,26.99
2023-03-01T19:56:07.948Z,27.06
2023-03-01T19:59:13.190Z,26.99
2023-03-01T20:02:17.733Z,26.93
2023-03-01T20:05:21.015Z,26.96
2023-03-01T20:08:25.162Z,27.05
2023-03-01T20:11:28.529Z,27.32
2023-03-01T20:14:31.733Z,27.25
2023-03-01T20:17:34.869Z,27.09
2023-03-01T20:20:39.833Z,27.46
2023-03-01T20:23:43.012Z,27.33
2023-03-01T20:26:48.695Z,26.88
2023-03-01T20:29:51.851Z,26.98
2023-03-01T20:32:55.922Z,26.79
2023-03-01T20:35:59.165Z,26.81
2023-03-01T20:39:02.761Z,26.69
2023-03-01T20:42:06.074Z,27.11
2023-03-01T20:45:09.685Z,27.37
2023-03-01T20:48:12.911Z,27.36
2023-03-01T20:51:16.182Z,27.37
2023-03-01T20:54:19.522Z,27.34
2023-03-01T20:57:23.008Z,27.11
2023-03-01T21:00:26.506Z,27.45
2023-03-01T21:03:30.083Z,27.82
2023-03-01T21:06:33.547Z,27.32
2023-03-01T21:09:36.910Z,27.28
2023-03-01T21:12:40.118Z,27.04
2023-03-01T21:15:43.446Z,27.19
2023-03-01T21:18:46.866Z,27.16
2023-03-01T21:21:50.076Z,26.98
2023-03-01T21:24:53.428Z,27.36
2023-03-01T21:27:56.678Z,27.23
2023-03-01T21:31:05.942Z,27.50
2023-03-01T21:34:09.189Z,27.82
2023-03-01T21:37:12.428Z,27.60
2023-03-01T21:40:16.156Z,27.59
2023-03-01T21:43:19.392Z,27.87
2023-03-01T21:46:24.578Z,27.80
2023-03-01T21:49:28.259Z,27.70
2023-03-01T21:52:31.542Z,27.56
2023-03-01T21:55:34.707Z,27.84
2023-03-01T21:58:38.010Z,27.36
2023-03-01T22:01:41.243Z,27.19
2023-03-01T22:04:44.670Z,27.11
2023-03-01T22:07:48.037Z,27.50
2023-03-01T22:10:51.984Z,27.50
2023-03-01T22:13:57.018Z,27.45
2023-03-01T22:17:00.571Z,27.36
2023-03-01T22:20:03.959Z,27.59
2023-03-01T22:23:10.171Z,27.39
2023-03-01T22:26:37.536Z,27.09
2023-03-01T22:29:40.759Z,27.02
2023-03-01T22:32:44.155Z,27.02
2023-03-01T22:35:48.733Z,27.19
2023-03-01T22:38:52.157Z,27.05
2023-03-01T22:41:55.545Z,28.44
2023-03-01T22:44:58.968Z,27.48
2023-03-01T22:48:02.441Z,27.20
2023-03-01T22:51:06.878Z,27.35
2023-03-01T22:54:12.020Z,26.98
2023-03-01T22:57:15.286Z,27.13
2023-03-01T23:00:19.175Z,26.86
2023-03-01T23:03:22.427Z,26.58
2023-03-01T23:06:26.039Z,26.64
2023-03-01T23:09:34.629Z,26.63
2023-03-01T23:12:37.912Z,26.74
2023-03-01T23:15:41.345Z,26.72
2023-03-01T23:18:44.846Z,26.56
2023-03-01T23:21:48.124Z,27.00
2023-03-01T23:24:51.695Z,26.57
2023-03-01T23:27:55.264Z,26.37
2023-03-01T23:31:00.641Z,26.47
2023-03-01T23:34:04.274Z,26.38
2023-03-01T23:37:07.557Z,26.49
2023-03-01T23:40:11.599Z,26.47
2023-03-01T23:43:15.847Z,26.27
2023-03-01T23:46:21.632Z,26.43
2023-03-01T23:49:25.056Z,26.21
2023-03-01T23:52:28.423Z,25.90
2023-03-01T23:55:34.027Z,25.84
2023-03-01T23:58:37.296Z,25.79
